createdAt,value
2023-02-07T00:01:25.783Z,103511.06
2023-02-07T00:03:55.107Z,103509.28
2023-02-07T00:06:25.361Z,103522.91
2023-02-07T00:08:53.059Z,103525.44
2023-02-07T00:11:21.680Z,103522.91
2023-02-07T00:13:53.751Z,103526.47
2023-02-07T00:16:21.679Z,103519.59
2023-02-07T00:18:48.999Z,103527.34
2023-02-07T00:21:18.933Z,103522.09
2023-02-07T00:23:46.650Z,103515.03
2023-02-07T00:26:18.040Z,103513.97
2023-02-07T00:28:45.411Z,103510.47
2023-02-07T00:31:13.839Z,103506.94
2023-02-07T00:33:43.523Z,103505.25
2023-02-07T00:36:15.870Z,103513.00
2023-02-07T00:38:44.181Z,103514.69
2023-02-07T00:41:15.089Z,103514.56
2023-02-07T00:43:42.689Z,103511.03
2023-02-07T00:46:10.283Z,103509.31
2023-02-07T00:48:40.102Z,103513.59
2023-02-07T00:51:07.455Z,103512.72
2023-02-07T00:53:34.826Z,103508.53
2023-02-07T00:56:02.265Z,103510.28
2023-02-07T00:58:29.459Z,103499.00
2023-02-07T01:00:56.743Z,103505.94
2023-02-07T01:03:24.261Z,103510.94
2023-02-07T01:05:51.502Z,103504.84
2023-02-07T01:08:18.842Z,103507.53
2023-02-07T01:10:46.357Z,103509.28
2023-02-07T01:13:14.138Z,103513.59
2023-02-07T01:15:45.004Z,103511.84
2023-02-07T01:18:12.434Z,103509.31
2023-02-07T01:20:39.946Z,103511.81
2023-02-07T01:23:07.502Z,103516.00
2023-02-07T01:25:34.688Z,103508.03
2023-02-07T01:28:01.971Z,103500.22
2023-02-07T01:30:29.192Z,103495.81
2023-02-07T01:32:56.328Z,103499.13
2023-02-07T01:35:23.586Z,103492.84
2023-02-07T01:37:50.740Z,103492.63
2023-02-07T01:40:18.037Z,103489.06
2023-02-07T01:42:45.224Z,103485.47
2023-02-07T01:45:24.343Z,103485.63
2023-02-07T01:47:54.783Z,103490.03
2023-02-07T01:50:22.652Z,103493.50
2023-02-07T01:52:49.839Z,103490.09
2023-02-07T01:55:21.549Z,103483.22
2023-02-07T01:57:48.750Z,103486.69
2023-02-07T02:00:16.852Z,103490.03
2023-02-07T02:02:44.441Z,103482.03
2023-02-07T02:05:12.376Z,103485.28
2023-02-07T02:07:39.937Z,103493.03
2023-02-07T02:10:14.479Z,103485.28
2023-02-07T02:13:07.439Z,103480.91
2023-02-07T02:15:48.396Z,103468.00
2023-02-07T02:18:32.708Z,103479.94
2023-02-07T02:21:35.557Z,103472.22
2023-02-07T02:24:18.843Z,103483.28
2023-02-07T02:27:00.940Z,103479.88
2023-02-07T02:29:55.666Z,103475.56
2023-02-07T02:32:39.271Z,103473.78
2023-02-07T02:35:31.461Z,103472.84
2023-02-07T02:38:13.055Z,103462.47
2023-02-07T02:41:05.744Z,103460.78
2023-02-07T02:43:40.907Z,103465.78
2023-02-07T02:46:21.831Z,103457.03
2023-02-07T02:48:49.930Z,103456.16
2023-02-07T02:51:17.123Z,103450.13
2023-02-07T02:53:54.454Z,103453.53
2023-02-07T02:56:53.884Z,103447.41
2023-02-07T02:59:34.048Z,103444.94
2023-02-07T03:02:17.809Z,103444.97
2023-02-07T03:05:06.279Z,103444.09
2023-02-07T03:07:48.776Z,103442.34
2023-02-07T03:10:31.848Z,103442.34
2023-02-07T03:13:15.506Z,103445.81
2023-02-07T03:16:05.053Z,103429.47
2023-02-07T03:18:49.424Z,103437.88
2023-02-07T03:21:34.597Z,103433.47
2023-02-07T03:24:06.642Z,103431.03
2023-02-07T03:26:34.692Z,103429.31
2023-02-07T03:29:02.913Z,103434.53
2023-02-07T03:31:31.760Z,103432.97
2023-02-07T03:34:04.333Z,103437.31
2023-02-07T03:36:37.150Z,103433.84
2023-02-07T03:39:04.618Z,103439.00
2023-02-07T03:41:37.299Z,103429.38
2023-02-07T03:44:07.186Z,103431.75
2023-02-07T03:46:40.128Z,103438.31
2023-02-07T03:49:11.573Z,103438.13
2023-02-07T03:51:38.782Z,103437.16
2023-02-07T03:54:05.969Z,103440.59
2023-02-07T03:56:33.134Z,103442.34
2023-02-07T03:59:00.289Z,103435.44
2023-02-07T04:01:27.647Z,103433.69
2023-02-07T04:03:54.793Z,103439.66
2023-02-07T04:06:22.189Z,103443.88
2023-02-07T04:08:50.455Z,103446.31
2023-02-07T04:11:17.558Z,103453.22
2023-02-07T04:13:44.790Z,103454.13
2023-02-07T04:16:11.993Z,103449.91
2023-02-07T04:18:39.201Z,103448.22
2023-02-07T04:21:07.728Z,103450.66
2023-02-07T04:23:36.022Z,103451.53
2023-02-07T04:26:03.657Z,103448.97
2023-02-07T04:28:30.854Z,103444.69
2023-02-07T04:30:58.150Z,103441.19
2023-02-07T04:33:25.392Z,103431.59
2023-02-07T04:36:01.098Z,103427.13
2023-02-07T04:38:28.395Z,103437.44
2023-02-07T04:41:05.689Z,103438.19
2023-02-07T04:43:34.007Z,103444.09
2023-02-07T04:46:02.033Z,103434.59
2023-02-07T04:48:29.507Z,103439.75
2023-02-07T04:50:56.857Z,103432.91
2023-02-07T04:53:24.328Z,103443.00
2023-02-07T04:55:52.759Z,103441.16
2023-02-07T04:58:20.993Z,103448.91
2023-02-07T05:00:48.263Z,103459.19
2023-02-07T05:03:15.836Z,103456.50
2023-02-07T05:05:43.611Z,103457.22
2023-02-07T05:08:11.363Z,103452.22
2023-02-07T05:10:39.309Z,103446.19
2023-02-07T05:13:07.560Z,103453.09
2023-02-07T05:15:34.882Z,103452.97
2023-02-07T05:18:02.252Z,103448.63
2023-02-07T05:20:29.430Z,103451.22
2023-02-07T05:22:56.588Z,103451.88
2023-02-07T05:25:23.796Z,103441.44
2023-02-07T05:27:51.108Z,103449.97
2023-02-07T05:30:18.717Z,103445.50
2023-02-07T05:33:04.276Z,103448.91
2023-02-07T05:35:43.481Z,103455.81
2023-02-07T05:38:12.910Z,103448.16
2023-02-07T05:40:41.092Z,103456.56
2023-02-07T05:43:08.973Z,103455.53
2023-02-07T05:45:37.201Z,103457.22
2023-02-07T05:48:05.048Z,103465.84
2023-02-07T05:50:32.463Z,103466.66
2023-02-07T05:52:59.778Z,103469.22
2023-02-07T05:55:27.027Z,103464.13
2023-02-07T05:57:54.436Z,103462.44
2023-02-07T06:00:21.775Z,103459.66
2023-02-07T06:02:49.016Z,103480.31
2023-02-07T06:05:18.355Z,103472.59
2023-02-07T06:07:45.743Z,103476.13
2023-02-07T06:10:13.686Z,103473.56
2023-02-07T06:12:40.909Z,103474.44
2023-02-07T06:15:08.569Z,103475.78
2023-02-07T06:17:35.819Z,103475.06
2023-02-07T06:20:03.472Z,103480.06
2023-02-07T06:22:30.754Z,103486.91
2023-02-07T06:24:58.020Z,103493.75
2023-02-07T06:27:25.202Z,103500.59
2023-02-07T06:29:52.442Z,103500.72
2023-02-07T06:32:19.667Z,103496.59
2023-02-07T06:34:46.920Z,103494.19
2023-02-07T06:37:14.038Z,103489.97
2023-02-07T06:39:41.224Z,103489.25
2023-02-07T06:42:08.397Z,103500.41
2023-02-07T06:44:35.639Z,103493.53
2023-02-07T06:47:02.783Z,103502.06
2023-02-07T06:49:29.989Z,103502.78
2023-02-07T06:51:57.102Z,103499.38
2023-02-07T06:54:24.305Z,103493.47
2023-02-07T06:56:51.485Z,103491.75
2023-02-07T06:59:18.827Z,103499.53
2023-02-07T07:01:48.338Z,103489.25
2023-02-07T07:04:18.298Z,103489.25
2023-02-07T07:06:45.580Z,103500.47
2023-02-07T07:09:13.632Z,103499.75
2023-02-07T07:11:43.033Z,103497.34
2023-02-07T07:14:11.623Z,103500.91
2023-02-07T07:16:40.676Z,103495.97
2023-02-07T07:19:08.005Z,103494.34
2023-02-07T07:21:35.565Z,103485.09
2023-02-07T07:24:02.709Z,103476.69
2023-02-07T07:26:39.681Z,103470.88
2023-02-07T07:29:16.087Z,103469.19
2023-02-07T07:31:43.433Z,103476.13
2023-02-07T07:34:10.640Z,103477.16
2023-02-07T07:36:37.851Z,103478.19
2023-02-07T07:39:05.206Z,103479.13
2023-02-07T07:41:32.439Z,103478.31
2023-02-07T07:43:59.657Z,103481.50
2023-02-07T07:46:26.877Z,103480.63
2023-02-07T07:48:54.099Z,103480.66
2023-02-07T07:51:21.282Z,103484.28
2023-02-07T07:53:48.435Z,103488.69
2023-02-07T07:56:15.686Z,103487.94
2023-02-07T07:58:42.866Z,103489.84
2023-02-07T08:01:10.113Z,103493.44
2023-02-07T08:03:37.340Z,103497.03
2023-02-07T08:06:04.781Z,103498.84
2023-02-07T08:08:31.923Z,103505.09
2023-02-07T08:11:03.910Z,103505.16
2023-02-07T08:13:33.014Z,103506.91
2023-02-07T08:16:01.716Z,103503.81
2023-02-07T08:18:29.290Z,103507.50
2023-02-07T08:20:56.638Z,103513.84
2023-02-07T08:23:23.827Z,103513.16
2023-02-07T08:25:51.476Z,103504.66
2023-02-07T08:28:19.292Z,103509.13
2023-02-07T08:30:49.611Z,103503.91
2023-02-07T08:33:17.404Z,103506.75
2023-02-07T08:35:44.956Z,103501.91
2023-02-07T08:38:12.457Z,103501.16
2023-02-07T08:40:40.031Z,103502.22
2023-02-07T08:43:12.297Z,103496.50
2023-02-07T08:45:41.428Z,103493.38
2023-02-07T08:48:09.139Z,103499.78
2023-02-07T08:50:36.431Z,103497.63
2023-02-07T08:53:03.757Z,103497.75
2023-02-07T08:55:30.927Z,103494.66
2023-02-07T08:57:58.120Z,103504.34
2023-02-07T09:00:25.419Z,103500.38
2023-02-07T09:02:52.689Z,103495.34
2023-02-07T09:05:19.890Z,103496.50
2023-02-07T09:07:47.139Z,103491.44
2023-02-07T09:10:15.470Z,103494.34
2023-02-07T09:12:42.766Z,103493.69
2023-02-07T09:15:10.054Z,103489.63
2023-02-07T09:17:37.517Z,103485.44
2023-02-07T09:20:04.869Z,103488.31
2023-02-07T09:22:33.029Z,103494.72
2023-02-07T09:25:00.348Z,103500.09
2023-02-07T09:27:27.516Z,103496.94
2023-02-07T09:29:54.881Z,103498.97
2023-02-07T09:32:22.231Z,103499.09
2023-02-07T09:34:50.151Z,103507.03
2023-02-07T09:37:17.386Z,103499.41
2023-02-07T09:39:44.632Z,103504.66
2023-02-07T09:42:28.343Z,103506.69
2023-02-07T09:45:10.531Z,103519.88
2023-02-07T09:47:39.239Z,103507.25
2023-02-07T09:50:31.560Z,103509.31
2023-02-07T09:53:04.577Z,103508.72
2023-02-07T09:55:41.329Z,103513.13
2023-02-07T09:58:39.938Z,103515.13
2023-02-07T10:01:12.520Z,103521.44
2023-02-07T10:03:46.523Z,103523.44
2023-02-07T10:06:22.384Z,103531.44
2023-02-07T10:08:52.294Z,103534.31
2023-02-07T10:11:34.459Z,103542.34
2023-02-07T10:14:34.863Z,103541.00
2023-02-07T10:17:22.226Z,103531.66
2023-02-07T10:20:05.459Z,103540.59
2023-02-07T10:22:47.531Z,103534.81
2023-02-07T10:25:39.179Z,103535.25
2023-02-07T10:28:15.177Z,103539.78
2023-02-07T10:30:52.736Z,103534.69
2023-02-07T10:33:24.859Z,103527.91
2023-02-07T10:35:52.269Z,103519.25
2023-02-07T10:38:48.864Z,103515.94
2023-02-07T10:41:33.490Z,103516.25
2023-02-07T10:44:00.671Z,103517.25
2023-02-07T10:46:29.911Z,103523.47
2023-02-07T10:48:57.265Z,103522.75
2023-02-07T10:51:34.600Z,103524.56
2023-02-07T10:54:09.469Z,103517.78
2023-02-07T10:56:42.865Z,103518.78
2023-02-07T10:59:28.258Z,103525.13
2023-02-07T11:01:56.300Z,103520.88
2023-02-07T11:04:33.724Z,103510.63
2023-02-07T11:07:03.946Z,103510.91
2023-02-07T11:09:32.134Z,103520.72
2023-02-07T11:11:59.395Z,103524.31
2023-02-07T11:14:28.007Z,103518.28
2023-02-07T11:17:01.237Z,103521.63
2023-02-07T11:19:30.049Z,103512.25
2023-02-07T11:22:10.508Z,103520.03
2023-02-07T11:24:37.919Z,103515.31
2023-02-07T11:27:12.595Z,103523.31
2023-02-07T11:29:56.281Z,103517.41
2023-02-07T11:32:25.958Z,103530.47
2023-02-07T11:34:58.268Z,103515.75
2023-02-07T11:37:32.400Z,103512.63
2023-02-07T11:40:23.079Z,103512.94
2023-02-07T11:43:03.679Z,103517.69
2023-02-07T11:45:32.497Z,103496.41
2023-02-07T11:47:59.894Z,103494.19
2023-02-07T11:50:41.708Z,103503.09
2023-02-07T11:53:24.364Z,103495.38
2023-02-07T11:55:55.512Z,103492.06
2023-02-07T11:58:33.302Z,103488.88
2023-02-07T12:01:01.464Z,103486.66
2023-02-07T12:03:33.044Z,103480.81
2023-02-07T12:06:04.957Z,103480.22
2023-02-07T12:08:34.193Z,103485.53
2023-02-07T12:11:16.320Z,103486.69
2023-02-07T12:13:48.309Z,103476.50
2023-02-07T12:16:23.922Z,103479.19
2023-02-07T12:19:00.332Z,103486.78
2023-02-07T12:21:34.920Z,103484.38
2023-02-07T12:24:10.800Z,103474.03
2023-02-07T12:26:44.598Z,103476.63
2023-02-07T12:29:24.592Z,103466.31
2023-02-07T12:32:10.945Z,103472.66
2023-02-07T12:34:45.223Z,103463.91
2023-02-07T12:37:26.003Z,103464.16
2023-02-07T12:39:58.449Z,103462.72
2023-02-07T12:42:43.157Z,103461.16
2023-02-07T12:45:16.609Z,103459.63
2023-02-07T12:48:02.057Z,103447.75
2023-02-07T12:50:44.256Z,103445.22
2023-02-07T12:53:30.096Z,103431.69
2023-02-07T12:56:43.141Z,103432.47
2023-02-07T12:59:10.688Z,103426.31
2023-02-07T13:01:52.385Z,103430.66
2023-02-07T13:04:39.113Z,103439.00
2023-02-07T13:07:32.956Z,103438.47
2023-02-07T13:10:23.261Z,103432.88
2023-02-07T13:12:55.942Z,103429.41
2023-02-07T13:15:31.849Z,103421.94
2023-02-07T13:18:00.673Z,103424.31
2023-02-07T13:20:52.069Z,103425.47
2023-02-07T13:23:22.353Z,103424.56
2023-02-07T13:25:58.694Z,103431.06
2023-02-07T13:28:33.922Z,103425.66
2023-02-07T13:31:01.712Z,103416.06
2023-02-07T13:33:34.057Z,103419.88
2023-02-07T13:36:33.498Z,103411.94
2023-02-07T13:39:34.009Z,103415.50
2023-02-07T13:42:19.471Z,103407.63
2023-02-07T13:45:12.179Z,103411.94
2023-02-07T13:47:54.227Z,103415.44
2023-02-07T13:50:43.794Z,103408.13
2023-02-07T13:53:21.775Z,103410.47
2023-02-07T13:55:49.275Z,103411.09
2023-02-07T13:58:53.361Z,103405.06
2023-02-07T14:01:25.392Z,103407.34
2023-02-07T14:04:05.326Z,103393.50
2023-02-07T14:06:37.052Z,103395.44
2023-02-07T14:09:23.617Z,103392.28
2023-02-07T14:12:01.998Z,103388.53
2023-02-07T14:14:30.870Z,103390.38
2023-02-07T14:16:59.467Z,103391.56
2023-02-07T14:19:41.583Z,103389.34
2023-02-07T14:22:14.776Z,103388.31
2023-02-07T14:24:49.030Z,103386.38
2023-02-07T14:27:47.901Z,103389.28
2023-02-07T14:30:28.677Z,103390.44
2023-02-07T14:33:11.725Z,103397.97
2023-02-07T14:35:46.847Z,103404.53
2023-02-07T14:38:28.694Z,103395.66
2023-02-07T14:41:09.568Z,103395.94
2023-02-07T14:44:07.418Z,103390.72
2023-02-07T14:46:46.957Z,103390.16
2023-02-07T14:49:21.034Z,103386.78
2023-02-07T14:51:50.788Z,103384.38
2023-02-07T14:54:26.460Z,103387.00
2023-02-07T14:57:00.483Z,103386.91
2023-02-07T14:59:33.966Z,103381.00
2023-02-07T15:02:31.553Z,103374.94
2023-02-07T15:04:59.744Z,103370.63
2023-02-07T15:07:26.983Z,103377.56
2023-02-07T15:09:54.173Z,103378.47
2023-02-07T15:12:27.922Z,103376.72
2023-02-07T15:14:57.097Z,103380.16
2023-02-07T15:17:33.351Z,103381.25
2023-02-07T15:20:07.372Z,103375.22
2023-02-07T15:22:35.208Z,103375.25
2023-02-07T15:25:02.552Z,103373.53
2023-02-07T15:27:29.980Z,103377.88
2023-02-07T15:30:01.925Z,103379.63
2023-02-07T15:32:31.406Z,103376.97
2023-02-07T15:34:59.528Z,103379.50
2023-02-07T15:37:28.026Z,103380.28
2023-02-07T15:39:56.840Z,103377.69
2023-02-07T15:42:24.364Z,103371.34
2023-02-07T15:44:56.446Z,103369.59
2023-02-07T15:47:29.709Z,103371.31
2023-02-07T15:50:21.927Z,103370.44
2023-02-07T15:52:54.958Z,103370.44
2023-02-07T15:55:37.989Z,103374.75
2023-02-07T15:58:06.335Z,103364.25
2023-02-07T16:00:38.929Z,103359.88
2023-02-07T16:03:08.658Z,103365.84
2023-02-07T16:05:39.736Z,103370.91
2023-02-07T16:08:27.669Z,103368.16
2023-02-07T16:10:54.910Z,103371.53
2023-02-07T16:13:22.862Z,103369.75
2023-02-07T16:16:07.517Z,103378.47
2023-02-07T16:18:51.028Z,103381.09
2023-02-07T16:21:22.467Z,103370.75
2023-02-07T16:23:52.186Z,103375.97
2023-02-07T16:26:21.649Z,103371.44
2023-02-07T16:28:49.011Z,103380.84
2023-02-07T16:31:16.283Z,103373.66
2023-02-07T16:33:43.526Z,103376.19
2023-02-07T16:36:15.923Z,103375.16
2023-02-07T16:38:43.746Z,103382.03
2023-02-07T16:41:31.327Z,103380.13
2023-02-07T16:44:00.389Z,103384.25
2023-02-07T16:46:27.793Z,103385.97
2023-02-07T16:48:55.038Z,103385.97
2023-02-07T16:51:22.211Z,103385.03
2023-02-07T16:53:49.533Z,103387.53
2023-02-07T16:56:27.149Z,103385.69
2023-02-07T16:58:54.279Z,103390.00
2023-02-07T17:01:22.197Z,103396.84
2023-02-07T17:03:49.615Z,103398.47
2023-02-07T17:06:18.472Z,103405.09
2023-02-07T17:08:46.440Z,103405.84
2023-02-07T17:11:24.998Z,103401.50
2023-02-07T17:13:56.365Z,103398.88
2023-02-07T17:16:24.964Z,103387.56
2023-02-07T17:18:52.868Z,103387.53
2023-02-07T17:21:22.327Z,103380.53
2023-02-07T17:23:50.125Z,103383.91
2023-02-07T17:26:24.823Z,103384.63
2023-02-07T17:28:53.243Z,103385.44
2023-02-07T17:31:21.489Z,103391.38
2023-02-07T17:33:48.757Z,103383.28
2023-02-07T17:36:16.279Z,103391.84
2023-02-07T17:38:44.017Z,103391.69
2023-02-07T17:41:12.437Z,103388.91
2023-02-07T17:43:41.220Z,103394.09
2023-02-07T17:46:23.547Z,103396.78
2023-02-07T17:48:51.419Z,103397.66
2023-02-07T17:51:21.358Z,103405.53
2023-02-07T17:53:48.676Z,103409.88
2023-02-07T17:56:30.186Z,103409.88
2023-02-07T17:59:00.246Z,103412.47
2023-02-07T18:01:27.698Z,103410.66
2023-02-07T18:03:55.401Z,103407.00
2023-02-07T18:06:24.862Z,103405.19
2023-02-07T18:08:52.741Z,103402.59
2023-02-07T18:11:20.187Z,103397.19
2023-02-07T18:13:48.175Z,103387.59
2023-02-07T18:16:19.127Z,103390.09
2023-02-07T18:18:46.350Z,103395.13
2023-02-07T18:21:13.861Z,103394.13
2023-02-07T18:23:42.966Z,103389.66
2023-02-07T18:26:15.082Z,103400.72
2023-02-07T18:28:43.783Z,103398.94
2023-02-07T18:31:20.297Z,103397.25
2023-02-07T18:33:48.323Z,103405.09
2023-02-07T18:36:16.445Z,103410.22
2023-02-07T18:38:43.896Z,103419.75
2023-02-07T18:41:13.550Z,103417.13
2023-02-07T18:43:41.532Z,103425.56
2023-02-07T18:46:14.793Z,103414.97
2023-02-07T18:48:44.925Z,103421.13
2023-02-07T18:51:14.546Z,103422.88
2023-02-07T18:53:42.506Z,103425.38
2023-02-07T18:56:15.622Z,103425.44
2023-02-07T18:58:44.168Z,103431.53
2023-02-07T19:01:18.839Z,103428.91
2023-02-07T19:03:47.740Z,103434.06
2023-02-07T19:06:15.053Z,103435.78
2023-02-07T19:08:42.233Z,103439.97
2023-02-07T19:11:10.101Z,103436.38
2023-02-07T19:13:37.355Z,103437.94
2023-02-07T19:16:11.969Z,103438.78
2023-02-07T19:18:39.429Z,103446.59
2023-02-07T19:21:09.310Z,103443.00
2023-02-07T19:23:37.240Z,103451.53
2023-02-07T19:26:04.648Z,103445.47
2023-02-07T19:31:49.006Z,103459.34
2023-02-07T19:34:16.170Z,103455.00
2023-02-07T19:36:43.526Z,103451.44
2023-02-07T19:39:11.405Z,103452.22
2023-02-07T19:41:38.566Z,103458.00
2023-02-07T19:44:05.789Z,103467.41
2023-02-07T19:46:33.056Z,103464.81
2023-02-07T19:49:00.351Z,103474.31
2023-02-07T19:51:29.155Z,103475.97
2023-02-07T19:53:56.732Z,103473.31
2023-02-07T19:56:26.649Z,103474.09
2023-02-07T19:58:55.244Z,103469.59
2023-02-07T20:01:25.176Z,103473.81
2023-02-07T20:03:53.324Z,103478.16
2023-02-07T20:06:23.395Z,103480.78
2023-02-07T20:08:51.234Z,103478.19
2023-02-07T20:11:19.622Z,103482.50
2023-02-07T20:13:50.158Z,103481.50
2023-02-07T20:16:19.944Z,103478.81
2023-02-07T20:18:47.326Z,103483.09
2023-02-07T20:21:16.463Z,103487.31
2023-02-07T20:23:46.692Z,103482.03
2023-02-07T20:26:18.148Z,103479.31
2023-02-07T20:28:49.881Z,103477.50
2023-02-07T20:31:20.830Z,103476.59
2023-02-07T20:33:48.054Z,103480.91
2023-02-07T20:36:16.733Z,103480.88
2023-02-07T20:38:45.970Z,103482.63
2023-02-07T20:41:16.266Z,103487.69
2023-02-07T20:43:43.537Z,103484.94
2023-02-07T20:46:13.788Z,103487.41
2023-02-07T20:48:41.662Z,103484.94
2023-02-07T20:51:10.435Z,103483.22
2023-02-07T20:53:42.714Z,103486.66
2023-02-07T20:56:13.072Z,103487.44
2023-02-07T20:58:40.528Z,103488.28
2023-02-07T21:01:12.127Z,103483.84
2023-02-07T21:03:39.968Z,103490.59
2023-02-07T21:06:07.933Z,103494.94
2023-02-07T21:08:36.273Z,103482.78
2023-02-07T21:11:04.323Z,103490.34
2023-02-07T21:13:31.484Z,103488.59
2023-02-07T21:16:03.406Z,103494.66
2023-02-07T21:18:35.209Z,103492.06
2023-02-07T21:21:07.130Z,103484.34
2023-02-07T21:23:34.754Z,103486.13
2023-02-07T21:26:06.032Z,103477.47
2023-02-07T21:28:33.967Z,103486.91
2023-02-07T21:31:12.935Z,103484.28
2023-02-07T21:33:40.117Z,103485.97
2023-02-07T21:36:12.835Z,103480.72
2023-02-07T21:38:41.129Z,103483.31
2023-02-07T21:41:11.220Z,103484.94
2023-02-07T21:43:40.249Z,103487.38
2023-02-07T21:46:19.480Z,103489.78
2023-02-07T21:48:47.375Z,103482.75
2023-02-07T21:51:17.975Z,103479.03
2023-02-07T21:53:45.527Z,103480.63
2023-02-07T21:56:15.176Z,103478.59
2023-02-07T21:58:42.886Z,103482.09
2023-02-07T22:01:12.736Z,103477.88
2023-02-07T22:03:41.722Z,103482.22
2023-02-07T22:06:10.249Z,103479.63
2023-02-07T22:08:38.353Z,103482.91
2023-02-07T22:11:07.693Z,103487.16
2023-02-07T22:13:36.371Z,103477.69
2023-02-07T22:16:03.794Z,103474.16
2023-02-07T22:18:31.029Z,103476.66
2023-02-07T22:21:23.965Z,103481.69
2023-02-07T22:23:51.655Z,103488.63
2023-02-07T22:26:19.256Z,103484.38
2023-02-07T22:28:46.978Z,103485.16
2023-02-07T22:31:20.294Z,103481.63
2023-02-07T22:33:48.557Z,103482.47
2023-02-07T22:36:21.611Z,103483.31
2023-02-07T22:38:49.227Z,103477.22
2023-02-07T22:41:17.490Z,103491.84
2023-02-07T22:43:44.617Z,103491.84
2023-02-07T22:46:15.062Z,103490.19
2023-02-07T22:48:42.932Z,103488.41
2023-02-07T22:51:26.761Z,103497.03
2023-02-07T22:54:02.174Z,103495.19
2023-02-07T22:56:29.609Z,103491.75
2023-02-07T22:58:56.789Z,103486.53
2023-02-07T23:01:52.730Z,103488.19
2023-02-07T23:04:19.913Z,103488.97
2023-02-07T23:06:47.264Z,103484.56
2023-02-07T23:09:15.013Z,103482.81
2023-02-07T23:11:42.214Z,103480.06
2023-02-07T23:14:09.400Z,103481.66
2023-02-07T23:20:23.153Z,103480.66
2023-02-07T23:22:51.648Z,103480.59
2023-02-07T23:25:18.897Z,103480.44
2023-02-07T23:27:46.610Z,103477.81
2023-02-07T23:30:14.699Z,103476.88
2023-02-07T23:32:42.341Z,103482.00
2023-02-07T23:35:09.481Z,103486.25
2023-02-07T23:37:36.673Z,103484.53
2023-02-07T23:40:04.338Z,103481.94
2023-02-07T23:42:31.558Z,103481.03
2023-02-07T23:44:58.840Z,103475.81
2023-02-07T23:47:26.058Z,103484.38
2023-02-07T23:49:53.195Z,103486.16
2023-02-07T23:52:20.355Z,103493.03
2023-02-07T23:54:47.880Z,103487.91
2023-02-07T23:57:15.045Z,103476.63
2023-02-07T23:59:42.244Z,103479.16
